createdAt,value
2023-04-12T00:00:11.193Z,1.60
2023-04-12T00:02:39.431Z,1.65
2023-04-12T00:05:06.382Z,1.63
2023-04-12T00:07:33.129Z,1.30
2023-04-12T00:09:59.649Z,1.52
2023-04-12T00:12:26.014Z,1.45
2023-04-12T00:14:52.468Z,1.55
2023-04-12T00:17:19.726Z,1.83
2023-04-12T00:19:47.522Z,1.83
2023-04-12T00:22:14.643Z,1.63
2023-04-12T00:24:41.763Z,1.45
2023-04-12T00:27:08.647Z,1.48
2023-04-12T00:29:35.437Z,1.33
2023-04-12T00:32:03.681Z,1.58
2023-04-12T00:34:31.224Z,1.35
2023-04-12T00:36:57.603Z,1.30
2023-04-12T00:39:23.993Z,1.42
2023-04-12T00:41:51.132Z,1.60
2023-04-12T00:44:18.255Z,1.75
2023-04-12T00:46:48.440Z,1.58
2023-04-12T00:49:15.492Z,1.27
2023-04-12T00:51:42.735Z,1.40
2023-04-12T00:54:09.239Z,1.90
2023-04-12T00:56:36.814Z,1.48
2023-04-12T00:59:03.487Z,1.45
2023-04-12T01:01:32.256Z,1.60
2023-04-12T01:04:01.340Z,1.48
2023-04-12T01:06:41.557Z,1.67
2023-04-12T01:09:31.355Z,1.42
2023-04-12T01:12:09.632Z,1.75
2023-04-12T01:14:51.129Z,1.88
2023-04-12T01:17:21.641Z,1.38
2023-04-12T01:20:13.087Z,1.50
2023-04-12T01:22:42.482Z,1.70
2023-04-12T01:25:23.803Z,1.65
2023-04-12T01:27:53.270Z,1.85
2023-04-12T01:30:21.302Z,1.75
2023-04-12T01:32:53.362Z,1.52
2023-04-12T01:35:22.747Z,1.88
2023-04-12T01:37:49.623Z,1.75
2023-04-12T01:40:18.386Z,1.45
2023-04-12T01:42:45.040Z,1.83
2023-04-12T01:45:12.115Z,1.52
2023-04-12T01:47:39.241Z,1.88
2023-04-12T01:50:19.260Z,2.25
2023-04-12T01:52:52.706Z,2.05
2023-04-12T01:55:22.316Z,1.63
2023-04-12T01:57:50.523Z,1.50
2023-04-12T02:00:17.779Z,1.77
2023-04-12T02:02:44.953Z,1.83
2023-04-12T02:05:12.365Z,1.85
2023-04-12T02:07:40.848Z,1.70
2023-04-12T02:10:07.599Z,1.45
2023-04-12T02:12:33.933Z,1.45
2023-04-12T02:15:00.293Z,1.58
2023-04-12T02:17:27.053Z,1.30
2023-04-12T02:19:53.490Z,1.67
2023-04-12T02:22:20.231Z,1.70
2023-04-12T02:24:47.697Z,1.30
2023-04-12T02:27:14.197Z,1.83
2023-04-12T02:29:41.229Z,1.63
2023-04-12T02:32:07.932Z,1.80
2023-04-12T02:34:36.609Z,1.60
2023-04-12T02:37:03.941Z,1.50
2023-04-12T02:39:32.177Z,1.80
2023-04-12T02:41:59.081Z,1.70
2023-04-12T02:44:25.934Z,1.60
2023-04-12T02:46:52.378Z,2.13
2023-04-12T02:49:18.806Z,1.60
2023-04-12T02:51:45.611Z,2.42
2023-04-12T02:54:12.491Z,1.83
2023-04-12T02:56:38.980Z,1.98
2023-04-12T02:59:07.016Z,2.38
2023-04-12T03:01:33.818Z,2.22
2023-04-12T03:04:02.126Z,1.75
2023-04-12T03:06:30.356Z,2.15
2023-04-12T03:08:58.027Z,1.83
2023-04-12T03:11:24.718Z,1.80
2023-04-12T03:13:52.552Z,1.52
2023-04-12T03:16:25.263Z,2.00
2023-04-12T03:18:52.618Z,1.88
2023-04-12T03:21:19.129Z,2.33
2023-04-12T03:23:45.993Z,2.15
2023-04-12T03:26:12.429Z,1.98
2023-04-12T03:28:39.266Z,1.98
2023-04-12T03:31:06.089Z,2.40
2023-04-12T03:33:32.538Z,2.10
2023-04-12T03:35:59.042Z,1.90
2023-04-12T03:38:25.660Z,2.25
2023-04-12T03:40:52.369Z,2.10
2023-04-12T03:43:18.751Z,1.88
2023-04-12T03:45:45.255Z,2.00
2023-04-12T03:48:12.021Z,2.00
2023-04-12T03:50:44.175Z,1.85
2023-04-12T03:53:11.770Z,1.95
2023-04-12T03:55:38.375Z,2.58
2023-04-12T03:58:05.116Z,1.90
2023-04-12T04:00:32.170Z,1.88
2023-04-12T04:03:03.197Z,2.03
2023-04-12T04:05:30.883Z,1.70
2023-04-12T04:08:01.163Z,2.00
2023-04-12T04:10:31.119Z,1.77
2023-04-12T04:12:57.786Z,1.83
2023-04-12T04:15:27.781Z,2.05
2023-04-12T04:17:54.282Z,2.30
2023-04-12T04:20:20.922Z,1.67
2023-04-12T04:22:53.328Z,1.92
2023-04-12T04:25:20.022Z,1.98
2023-04-12T04:27:46.480Z,1.90
2023-04-12T04:30:15.571Z,1.75
2023-04-12T04:32:43.101Z,2.28
2023-04-12T04:35:09.655Z,1.88
2023-04-12T04:37:37.042Z,1.90
2023-04-12T04:40:09.572Z,2.00
2023-04-12T04:42:38.317Z,2.20
2023-04-12T04:45:13.246Z,2.05
2023-04-12T04:47:40.332Z,1.63
2023-04-12T04:50:07.537Z,1.83
2023-04-12T04:52:34.239Z,1.70
2023-04-12T04:55:00.799Z,1.95
2023-04-12T04:57:27.240Z,1.85
2023-04-12T04:59:53.654Z,1.70
2023-04-12T05:02:21.804Z,1.50
2023-04-12T05:04:48.240Z,1.88
2023-04-12T05:07:14.994Z,1.65
2023-04-12T05:09:41.802Z,1.90
2023-04-12T05:12:08.836Z,2.08
2023-04-12T05:14:46.700Z,1.67
2023-04-12T05:17:16.427Z,1.80
2023-04-12T05:19:44.757Z,1.70
2023-04-12T05:22:11.546Z,1.50
2023-04-12T05:24:38.028Z,1.60
2023-04-12T05:27:04.469Z,1.73
2023-04-12T05:29:31.339Z,1.80
2023-04-12T05:31:59.209Z,1.60
2023-04-12T05:34:25.819Z,1.90
2023-04-12T05:36:52.212Z,1.70
2023-04-12T05:39:20.596Z,1.58
2023-04-12T05:41:47.233Z,1.13
2023-04-12T05:44:14.017Z,1.90
2023-04-12T05:46:40.518Z,1.65
2023-04-12T05:49:06.956Z,1.65
2023-04-12T05:51:40.986Z,2.13
2023-04-12T05:54:07.959Z,1.95
2023-04-12T05:56:34.439Z,1.77
2023-04-12T05:59:01.454Z,2.22
2023-04-12T06:01:34.964Z,1.92
2023-04-12T06:04:06.514Z,1.50
2023-04-12T06:06:32.997Z,1.52
2023-04-12T06:09:00.640Z,1.58
2023-04-12T06:11:27.742Z,1.70
2023-04-12T06:13:54.382Z,1.60
2023-04-12T06:16:21.118Z,1.60
2023-04-12T06:18:47.820Z,1.63
2023-04-12T06:21:14.243Z,1.60
2023-04-12T06:23:40.945Z,1.60
2023-04-12T06:26:07.480Z,1.70
2023-04-12T06:28:33.842Z,1.65
2023-04-12T06:31:01.417Z,1.15
2023-04-12T06:33:27.818Z,1.73
2023-04-12T06:35:54.615Z,1.55
2023-04-12T06:38:21.211Z,1.67
2023-04-12T06:40:48.167Z,1.42
2023-04-12T06:43:19.068Z,1.40
2023-04-12T06:45:46.306Z,1.42
2023-04-12T06:48:12.684Z,1.40
2023-04-12T06:50:40.200Z,1.23
2023-04-12T06:53:06.638Z,1.50
2023-04-12T06:55:33.081Z,1.23
2023-04-12T06:57:59.875Z,1.40
2023-04-12T07:00:26.737Z,1.23
2023-04-12T07:02:53.160Z,1.45
2023-04-12T07:05:20.139Z,1.30
2023-04-12T07:07:46.660Z,1.50
2023-04-12T07:10:13.212Z,1.40
2023-04-12T07:12:39.772Z,1.48
2023-04-12T07:15:06.537Z,1.40
2023-04-12T07:17:32.970Z,1.80
2023-04-12T07:19:59.845Z,1.60
2023-04-12T07:22:26.406Z,1.60
2023-04-12T07:24:53.397Z,1.77
2023-04-12T07:27:19.864Z,1.30
2023-04-12T07:29:46.523Z,1.50
2023-04-12T07:32:13.247Z,1.70
2023-04-12T07:34:39.700Z,1.15
2023-04-12T07:37:06.415Z,1.85
2023-04-12T07:39:34.829Z,1.70
2023-04-12T07:42:01.593Z,1.63
2023-04-12T07:44:28.130Z,1.50
2023-04-12T07:46:54.754Z,2.20
2023-04-12T07:49:21.519Z,2.05
2023-04-12T07:51:48.279Z,1.60
2023-04-12T07:54:15.311Z,1.40
2023-04-12T07:56:42.063Z,1.40
2023-04-12T07:59:08.476Z,1.10
2023-04-12T08:01:34.984Z,1.38
2023-04-12T08:04:02.595Z,1.20
2023-04-12T08:06:31.725Z,1.35
2023-04-12T08:08:59.773Z,1.27
2023-04-12T08:11:26.426Z,1.20
2023-04-12T08:13:53.341Z,1.50
2023-04-12T08:16:20.413Z,1.10
2023-04-12T08:18:46.858Z,1.10
2023-04-12T08:21:13.297Z,1.42
2023-04-12T08:23:40.056Z,1.17
2023-04-12T08:26:06.570Z,1.50
2023-04-12T08:28:33.881Z,1.15
2023-04-12T08:31:01.280Z,1.05
2023-04-12T08:33:27.791Z,1.30
2023-04-12T08:35:54.502Z,1.20
2023-04-12T08:38:30.600Z,1.02
2023-04-12T08:41:05.695Z,1.50
2023-04-12T08:43:34.218Z,1.23
2023-04-12T08:46:01.473Z,1.27
2023-04-12T08:48:29.570Z,1.00
2023-04-12T08:51:01.029Z,1.35
2023-04-12T08:53:27.465Z,1.20
2023-04-12T08:55:54.468Z,1.25
2023-04-12T08:58:22.288Z,1.10
2023-04-12T09:00:48.759Z,1.30
2023-04-12T09:03:15.467Z,1.10
2023-04-12T09:05:42.054Z,1.10
2023-04-12T09:08:08.908Z,1.30
2023-04-12T09:10:37.851Z,1.35
2023-04-12T09:13:05.780Z,1.23
2023-04-12T09:15:33.492Z,1.13
2023-04-12T09:18:11.300Z,1.10
2023-04-12T09:20:38.953Z,1.75
2023-04-12T09:23:26.439Z,1.00
2023-04-12T09:25:53.625Z,1.00
2023-04-12T09:28:27.985Z,1.52
2023-04-12T09:30:56.525Z,1.30
2023-04-12T09:33:33.410Z,1.23
2023-04-12T09:36:02.224Z,1.30
2023-04-12T09:38:30.417Z,1.30
2023-04-12T09:40:57.512Z,1.20
2023-04-12T09:43:39.682Z,1.23
2023-04-12T09:46:13.483Z,1.30
2023-04-12T09:48:41.136Z,2.85
2023-04-12T09:51:08.165Z,5.30
2023-04-12T09:53:41.319Z,10.40
2023-04-12T09:56:10.633Z,5.00
2023-04-12T09:58:39.110Z,2.85
2023-04-12T10:01:10.253Z,1.77
2023-04-12T10:03:37.087Z,1.60
2023-04-12T10:06:05.574Z,1.70
2023-04-12T10:08:32.658Z,1.42
2023-04-12T10:11:01.077Z,1.42
2023-04-12T10:13:29.521Z,1.27
2023-04-12T10:15:56.216Z,1.15
2023-04-12T10:18:23.823Z,1.27
2023-04-12T10:20:51.101Z,1.40
2023-04-12T10:23:18.388Z,1.30
2023-04-12T10:25:48.185Z,1.20
2023-04-12T10:28:17.110Z,1.40
2023-04-12T10:30:43.583Z,1.25
2023-04-12T10:33:10.354Z,1.23
2023-04-12T10:35:54.959Z,1.40
2023-04-12T10:38:24.855Z,1.60
2023-04-12T10:41:20.126Z,1.20
2023-04-12T10:43:48.086Z,1.38
2023-04-12T10:46:39.990Z,1.30
2023-04-12T10:49:11.516Z,1.15
2023-04-12T10:51:38.102Z,1.20
2023-04-12T10:54:07.930Z,1.25
2023-04-12T10:56:35.797Z,1.00
2023-04-12T10:59:09.424Z,1.30
2023-04-12T11:01:38.973Z,1.20
2023-04-12T11:04:17.284Z,1.10
2023-04-12T11:06:49.423Z,1.15
2023-04-12T11:09:34.264Z,1.17
2023-04-12T11:12:03.989Z,1.30
2023-04-12T11:14:36.027Z,1.10
2023-04-12T11:17:05.605Z,0.90
2023-04-12T11:19:39.805Z,1.00
2023-04-12T11:22:08.517Z,0.80
2023-04-12T11:24:44.848Z,1.00
2023-04-12T11:27:12.267Z,1.00
2023-04-12T11:29:38.903Z,1.00
2023-04-12T11:32:07.641Z,0.85
2023-04-12T11:34:36.212Z,0.80
2023-04-12T11:37:10.305Z,1.15
2023-04-12T11:39:39.534Z,1.92
2023-04-12T11:42:08.613Z,1.98
2023-04-12T11:44:52.446Z,1.77
2023-04-12T11:47:24.230Z,0.70
2023-04-12T11:49:56.040Z,0.90
2023-04-12T11:52:31.210Z,0.85
2023-04-12T11:55:02.437Z,0.80
2023-04-12T11:57:29.137Z,0.80
2023-04-12T11:59:57.719Z,0.90
2023-04-12T12:02:24.836Z,0.90
2023-04-12T12:04:53.588Z,1.10
2023-04-12T12:07:21.668Z,1.08
2023-04-12T12:09:49.870Z,1.20
2023-04-12T12:12:17.287Z,1.40
2023-04-12T12:14:45.522Z,1.40
2023-04-12T12:17:14.622Z,1.60
2023-04-12T12:19:43.490Z,1.48
2023-04-12T12:22:13.965Z,1.60
2023-04-12T12:24:57.638Z,1.90
2023-04-12T12:27:30.256Z,1.48
2023-04-12T12:30:01.481Z,1.67
2023-04-12T12:32:33.288Z,2.10
2023-04-12T12:34:59.735Z,1.98
2023-04-12T12:37:27.842Z,2.03
2023-04-12T12:40:21.453Z,1.92
2023-04-12T12:42:55.471Z,2.10
2023-04-12T12:45:27.538Z,2.38
2023-04-12T12:47:58.438Z,2.75
2023-04-12T12:50:29.551Z,2.35
2023-04-12T12:52:56.861Z,2.40
2023-04-12T12:55:24.332Z,1.90
2023-04-12T12:58:07.399Z,1.95
2023-04-12T13:00:35.336Z,1.75
2023-04-12T13:03:02.256Z,1.60
2023-04-12T13:05:29.352Z,1.63
2023-04-12T13:07:55.974Z,1.73
2023-04-12T13:10:23.616Z,1.88
2023-04-12T13:12:50.051Z,1.75
2023-04-12T13:17:45.856Z,2.00
2023-04-12T13:20:12.794Z,1.77
2023-04-12T13:22:39.224Z,1.73
2023-04-12T13:25:07.340Z,1.95
2023-04-12T13:27:33.736Z,2.17
2023-04-12T13:30:00.635Z,1.85
2023-04-12T13:32:27.337Z,1.73
2023-04-12T13:34:54.228Z,2.70
2023-04-12T13:37:20.726Z,2.00
2023-04-12T13:39:47.239Z,2.22
2023-04-12T13:42:13.604Z,2.58
2023-04-12T13:44:40.212Z,2.25
2023-04-12T13:47:06.593Z,2.08
2023-04-12T13:49:33.041Z,2.10
2023-04-12T13:51:59.477Z,2.40
2023-04-12T13:54:26.114Z,2.28
2023-04-12T13:56:52.500Z,1.88
2023-04-12T13:59:19.304Z,2.50
2023-04-12T14:01:46.117Z,2.65
2023-04-12T14:04:12.818Z,2.60
2023-04-12T14:06:39.301Z,2.67
2023-04-12T14:09:05.791Z,2.00
2023-04-12T14:11:46.202Z,1.95
2023-04-12T14:14:14.802Z,1.80
2023-04-12T14:16:43.008Z,1.90
2023-04-12T14:19:09.425Z,1.73
2023-04-12T14:21:36.448Z,1.80
2023-04-12T14:24:03.364Z,1.63
2023-04-12T14:26:29.793Z,1.70
2023-04-12T14:28:56.359Z,1.90
2023-04-12T14:31:23.120Z,1.73
2023-04-12T14:33:49.547Z,1.55
2023-04-12T14:36:16.089Z,1.67
2023-04-12T14:38:42.519Z,1.60
2023-04-12T14:41:09.709Z,1.50
2023-04-12T14:43:36.292Z,1.48
2023-04-12T14:46:02.711Z,1.77
2023-04-12T14:48:29.246Z,1.45
2023-04-12T14:50:55.644Z,1.40
2023-04-12T14:53:22.983Z,1.50
2023-04-12T14:55:49.446Z,1.58
2023-04-12T14:58:16.255Z,1.73
2023-04-12T15:00:42.722Z,1.23
2023-04-12T15:03:10.491Z,1.48
2023-04-12T15:05:37.168Z,1.50
2023-04-12T15:08:05.729Z,1.73
2023-04-12T15:10:32.148Z,1.20
2023-04-12T15:12:58.727Z,1.25
2023-04-12T15:15:25.121Z,1.20
2023-04-12T15:17:51.896Z,1.40
2023-04-12T15:20:18.453Z,1.20
2023-04-12T15:22:45.120Z,1.52
2023-04-12T15:25:12.143Z,1.10
2023-04-12T15:27:38.565Z,1.60
2023-04-12T15:30:09.867Z,1.10
2023-04-12T15:32:42.358Z,1.33
2023-04-12T15:35:25.338Z,1.20
2023-04-12T15:37:54.929Z,0.98
2023-04-12T15:40:22.683Z,0.85
2023-04-12T15:42:49.307Z,0.80
2023-04-12T15:45:16.033Z,1.10
2023-04-12T15:47:42.860Z,0.95
2023-04-12T15:50:09.621Z,0.75
2023-04-12T15:52:36.328Z,1.08
2023-04-12T15:55:04.986Z,1.20
2023-04-12T15:57:31.556Z,1.35
2023-04-12T15:59:59.352Z,1.45
2023-04-12T16:02:26.458Z,1.25
2023-04-12T16:04:55.809Z,1.25
2023-04-12T16:07:22.582Z,1.60
2023-04-12T16:09:49.048Z,1.77
2023-04-12T16:12:15.559Z,1.60
2023-04-12T16:14:42.219Z,1.52
2023-04-12T16:17:10.801Z,1.45
2023-04-12T16:19:37.482Z,1.42
2023-04-12T16:22:04.350Z,1.52
2023-04-12T16:24:30.791Z,1.45
2023-04-12T16:26:57.660Z,1.80
2023-04-12T16:29:24.596Z,2.53
2023-04-12T16:31:52.363Z,1.70
2023-04-12T16:34:21.832Z,1.70
2023-04-12T16:36:49.013Z,1.65
2023-04-12T16:39:16.517Z,1.80
2023-04-12T16:41:44.126Z,1.70
2023-04-12T16:44:11.051Z,1.52
2023-04-12T16:46:37.729Z,1.90
2023-04-12T16:49:04.268Z,1.60
2023-04-12T16:51:37.387Z,1.50
2023-04-12T16:54:04.465Z,1.50
2023-04-12T16:56:31.739Z,1.83
2023-04-12T16:59:01.336Z,1.67
2023-04-12T17:01:28.074Z,1.50
2023-04-12T17:03:54.623Z,1.80
2023-04-12T17:06:21.521Z,1.52
2023-04-12T17:08:48.885Z,1.73
2023-04-12T17:11:15.421Z,1.90
2023-04-12T17:13:42.248Z,1.30
2023-04-12T17:16:09.910Z,1.40
2023-04-12T17:18:39.750Z,1.45
2023-04-12T17:21:06.639Z,1.40
2023-04-12T17:23:33.048Z,1.10
2023-04-12T17:25:59.401Z,1.30
2023-04-12T17:28:25.812Z,1.15
2023-04-12T17:30:52.253Z,1.20
2023-04-12T17:33:18.741Z,1.10
2023-04-12T17:35:47.357Z,1.02
2023-04-12T17:38:13.865Z,1.50
2023-04-12T17:40:40.660Z,1.00
2023-04-12T17:43:07.204Z,1.02
2023-04-12T17:45:33.911Z,1.10
2023-04-12T17:48:00.742Z,0.85
2023-04-12T17:50:27.322Z,1.45
2023-04-12T17:52:55.341Z,0.90
2023-04-12T17:55:24.341Z,0.80
2023-04-12T17:57:51.161Z,1.10
2023-04-12T18:00:18.851Z,2.42
2023-04-12T18:02:46.552Z,0.80
2023-04-12T18:05:13.777Z,0.90
2023-04-12T18:07:42.456Z,0.90
2023-04-12T18:10:10.171Z,1.00
2023-04-12T18:12:38.480Z,1.00
2023-04-12T18:15:08.545Z,1.00
2023-04-12T18:17:35.032Z,0.90
2023-04-12T18:20:02.839Z,1.10
2023-04-12T18:22:29.618Z,1.00
2023-04-12T18:24:56.091Z,0.95
2023-04-12T18:27:22.699Z,1.10
2023-04-12T18:29:49.170Z,1.13
2023-04-12T18:32:16.097Z,1.98
2023-04-12T18:34:42.472Z,3.20
2023-04-12T18:37:08.890Z,1.30
2023-04-12T18:39:35.770Z,1.20
2023-04-12T18:42:02.693Z,4.00
2023-04-12T18:44:30.439Z,2.45
2023-04-12T18:46:56.965Z,2.50
2023-04-12T18:49:24.053Z,3.60
2023-04-12T18:51:50.709Z,4.53
2023-04-12T18:54:17.494Z,5.35
2023-04-12T18:56:43.962Z,3.80
2023-04-12T18:59:17.314Z,3.15
2023-04-12T19:01:45.048Z,2.40
2023-04-12T19:04:12.043Z,2.83
2023-04-12T19:06:38.548Z,3.00
2023-04-12T19:09:06.442Z,1.90
2023-04-12T19:11:34.918Z,1.60
2023-04-12T19:14:03.325Z,1.30
2023-04-12T19:16:29.829Z,1.30
2023-04-12T19:19:00.144Z,1.30
2023-04-12T19:21:29.096Z,1.20
2023-04-12T19:23:56.146Z,1.33
2023-04-12T19:26:23.262Z,1.30
2023-04-12T19:28:52.337Z,1.30
2023-04-12T19:31:18.985Z,1.20
2023-04-12T19:33:45.741Z,1.65
2023-04-12T19:36:12.183Z,1.33
2023-04-12T19:38:41.672Z,1.30
2023-04-12T19:41:08.099Z,1.20
2023-04-12T19:43:34.695Z,1.45
2023-04-12T19:46:01.476Z,1.42
2023-04-12T19:48:29.581Z,1.35
2023-04-12T19:50:57.008Z,2.10
2023-04-12T19:53:24.237Z,1.60
2023-04-12T19:55:56.943Z,2.15
2023-04-12T19:58:23.688Z,1.80
2023-04-12T20:00:54.678Z,1.92
2023-04-12T20:03:22.073Z,1.50
2023-04-12T20:05:48.644Z,1.60
2023-04-12T20:08:15.818Z,1.73
2023-04-12T20:10:42.796Z,1.42
2023-04-12T20:13:14.908Z,1.52
2023-04-12T20:15:42.741Z,1.70
2023-04-12T20:18:11.201Z,1.33
2023-04-12T20:20:38.242Z,1.35
2023-04-12T20:23:04.724Z,1.75
2023-04-12T20:25:35.463Z,1.38
2023-04-12T20:28:04.337Z,1.38
2023-04-12T20:30:31.025Z,1.10
2023-04-12T20:32:58.866Z,1.55
2023-04-12T20:35:25.628Z,1.30
2023-04-12T20:37:53.303Z,1.55
2023-04-12T20:40:20.649Z,1.50
2023-04-12T20:42:47.367Z,1.77
2023-04-12T20:45:14.319Z,1.42
2023-04-12T20:47:41.411Z,1.58
2023-04-12T20:50:08.222Z,1.73
2023-04-12T20:52:35.356Z,1.70
2023-04-12T20:55:02.279Z,1.50
2023-04-12T20:57:29.043Z,1.40
2023-04-12T20:59:55.607Z,1.60
2023-04-12T21:02:22.357Z,1.58
2023-04-12T21:04:49.010Z,1.60
2023-04-12T21:07:16.130Z,1.50
2023-04-12T21:09:42.625Z,1.60
2023-04-12T21:12:09.904Z,1.50
2023-04-12T21:14:37.550Z,1.50
2023-04-12T21:17:05.082Z,1.45
2023-04-12T21:19:31.955Z,1.42
2023-04-12T21:21:59.287Z,1.20
2023-04-12T21:24:26.029Z,1.45
2023-04-12T21:27:00.233Z,1.20
2023-04-12T21:29:26.627Z,1.30
2023-04-12T21:31:53.050Z,1.25
2023-04-12T21:34:22.062Z,1.42
2023-04-12T21:36:48.475Z,1.30
2023-04-12T21:39:15.226Z,1.30
2023-04-12T21:41:41.684Z,1.33
2023-04-12T21:44:08.222Z,1.10
2023-04-12T21:46:34.981Z,1.20
2023-04-12T21:49:01.348Z,1.10
2023-04-12T21:51:28.070Z,1.15
2023-04-12T21:53:54.482Z,1.00
2023-04-12T21:56:21.530Z,1.10
2023-04-12T21:58:47.894Z,1.13
2023-04-12T22:01:15.483Z,0.80
2023-04-12T22:03:44.936Z,0.85
2023-04-12T22:06:14.291Z,1.30
2023-04-12T22:08:43.906Z,1.08
2023-04-12T22:11:11.309Z,1.00
2023-04-12T22:13:46.648Z,0.90
2023-04-12T22:16:13.880Z,0.90
2023-04-12T22:18:41.108Z,0.90
2023-04-12T22:21:08.142Z,1.00
2023-04-12T22:23:38.726Z,0.90
2023-04-12T22:26:10.263Z,1.00
2023-04-12T22:28:38.087Z,0.95
2023-04-12T22:31:05.773Z,1.00
2023-04-12T22:33:32.291Z,1.10
2023-04-12T22:35:58.666Z,1.10
2023-04-12T22:38:25.555Z,0.90
2023-04-12T22:40:52.386Z,1.00
2023-04-12T22:43:20.804Z,0.93
2023-04-12T22:45:47.350Z,1.10
2023-04-12T22:48:17.436Z,0.90
2023-04-12T22:50:47.172Z,0.90
2023-04-12T22:53:13.947Z,1.20
2023-04-12T22:55:41.558Z,1.25
2023-04-12T22:58:08.446Z,1.10
2023-04-12T23:00:35.599Z,1.10
2023-04-12T23:03:02.541Z,0.90
2023-04-12T23:05:29.239Z,0.95
2023-04-12T23:07:55.618Z,1.00
2023-04-12T23:10:22.439Z,0.98
2023-04-12T23:12:52.143Z,1.15
2023-04-12T23:15:19.037Z,1.17
2023-04-12T23:17:45.541Z,0.98
2023-04-12T23:20:15.162Z,1.00
2023-04-12T23:23:07.623Z,0.80
2023-04-12T23:25:41.818Z,1.25
2023-04-12T23:28:13.954Z,0.90
2023-04-12T23:30:48.755Z,0.90
2023-04-12T23:33:18.072Z,0.90
2023-04-12T23:35:46.111Z,1.02
2023-04-12T23:38:15.690Z,0.80
2023-04-12T23:40:43.300Z,1.00
2023-04-12T23:43:09.701Z,1.00
2023-04-12T23:45:37.252Z,0.70
2023-04-12T23:48:07.241Z,0.80
2023-04-12T23:50:33.737Z,0.75
2023-04-12T23:53:00.157Z,0.90
2023-04-12T23:55:26.675Z,0.77
2023-04-12T23:57:53.029Z,1.00
